CYKL

Schefferville Airport

Airport
ICAO code
CYKL
IATA Code
YKL
Summary
ICAO Region
NAT
ICAO Territory
Location

Schefferville, Quebec, Canada

Serving
Schefferville
Elevation
1709 ft
Coordinates
54° 48' 19" N , 66° 48' 19" W
KCC
Metar
Observation
CYKL 271000Z AUTO 31003KT 9SM OVC100 M01/M01 A2975 RMK SLP102
Station
Schefferville, Que.
Date/Time
2022-09-27 10:00:00
Wind direction
310°
Wind speed
03 kts
Lowest cloud amount
overcast
Temperature
-1°C
Dew point
-1°C
Humidity
100%
Weather condition
n/a

Scefferville Airport is loctaed adjacent to the community of Schefferville, Quebec, Canada.

Runways

Designator Length Width Surface Rops
18/36 1524 46 ASP No/No

Airport map

Aerial View

SKYbrary Partners:

Safety knowledge contributed by: